Time;durP1;ratioP1;P1;durP2;ratioP2;P2;SDS_P1;SDS_P2;PMS_P1;PMS_P2;Temp;Humidity;BMP_temperature;BMP_pressure;BME280_temperature;BME280_humidity;BME280_pressure;Samples;Min_cycle;Max_cycle;Signal;HPM_P1;HPM_P2
2023/01/20 00:02:21;;;;;;;10.55;6.47;;;;;;;8.01;100.00;96707.88;10295461;28;19975;-46
2023/01/20 00:07:20;;;;;;;6.45;4.70;;;;;;;8.14;100.00;96739.63;10294133;28;20033;-47
2023/01/20 00:12:19;;;;;;;5.68;2.30;;;;;;;8.16;100.00;96743.06;10293824;28;20029;-47
2023/01/20 00:17:18;;;;;;;6.78;2.63;;;;;;;8.23;100.00;96755.06;10288732;28;20053;-47
2023/01/20 00:22:17;;;;;;;2.58;1.20;;;;;;;8.04;100.00;96793.09;10270593;28;20038;-47
2023/01/20 00:27:16;;;;;;;4.57;1.70;;;;;;;7.97;100.00;96819.84;10292403;28;20110;-50
2023/01/20 00:32:15;;;;;;;7.68;3.03;;;;;;;8.01;100.00;96834.47;10293657;28;20054;-50
2023/01/20 00:37:14;;;;;;;3.83;1.50;;;;;;;7.89;100.00;96834.50;10292308;28;20112;-47
2023/01/20 00:42:13;;;;;;;1.42;0.93;;;;;;;7.83;100.00;96856.06;10294214;28;20109;-47
2023/01/20 00:47:12;;;;;;;2.20;1.60;;;;;;;7.58;100.00;96878.56;10290988;28;20116;-47
2023/01/20 00:52:11;;;;;;;3.75;2.58;;;;;;;7.51;100.00;96905.25;10289603;28;20038;-47
2023/01/20 00:57:10;;;;;;;48.80;31.38;;;;;;;7.15;100.00;96859.72;10298529;28;20092;-49
2023/01/20 01:02:09;;;;;;;8.30;3.30;;;;;;;6.98;100.00;96867.47;10287652;28;20085;-49
2023/01/20 01:07:08;;;;;;;5.80;3.17;;;;;;;7.17;100.00;96900.13;10292337;28;20033;-49
2023/01/20 01:12:07;;;;;;;5.65;1.65;;;;;;;7.13;100.00;96823.59;10291144;28;20096;-48
2023/01/20 01:17:06;;;;;;;4.32;2.05;;;;;;;6.50;100.00;96661.31;10291620;28;20551;-47
2023/01/20 01:22:05;;;;;;;4.68;1.63;;;;;;;6.29;100.00;96613.25;10291928;28;20105;-47
2023/01/20 01:27:04;;;;;;;1.85;1.13;;;;;;;6.07;100.00;96557.50;10290657;28;21035;-48
2023/01/20 01:32:04;;;;;;;3.30;1.65;;;;;;;6.44;100.00;96594.31;10291536;28;20076;-50
2023/01/20 01:37:03;;;;;;;1.60;1.20;;;;;;;6.68;100.00;96606.25;10287826;28;20485;-47
2023/01/20 01:42:02;;;;;;;5.25;2.83;;;;;;;6.54;100.00;96602.88;10286635;28;20504;-48
2023/01/20 01:47:01;;;;;;;5.65;2.45;;;;;;;6.38;100.00;96574.59;10290388;28;20069;-46
2023/01/20 01:52:04;;;;;;;3.30;1.50;;;;;;;6.23;100.00;96564.31;10290107;28;20563;-47
2023/01/20 01:57:06;;;;;;;1.30;1.00;;;;;;;5.95;100.00;96502.59;10289319;28;20065;-49
2023/01/20 02:02:05;;;;;;;0.60;0.60;;;;;;;6.46;100.00;96576.28;10289246;28;20074;-47
2023/01/20 02:07:09;;;;;;;1.92;1.20;;;;;;;6.79;100.00;96585.56;10290705;28;20069;-47
2023/01/20 02:12:12;;;;;;;1.27;1.00;;;;;;;6.87;100.00;96572.66;10289265;28;20069;-49
2023/01/20 02:17:23;;;;;;;1.20;1.10;;;;;;;6.61;100.00;96527.25;10290345;28;20072;-49
2023/01/20 02:22:34;;;;;;;2.08;1.00;;;;;;;6.93;100.00;96575.19;10288048;28;20151;-47
2023/01/20 02:28:10;;;;;;;2.15;1.05;;;;;;;6.93;100.00;96576.03;10288545;28;20065;-48
2023/01/20 02:33:16;;;;;;;3.15;0.90;;;;;;;7.13;100.00;96580.25;10289041;28;20070;-49
2023/01/20 02:38:25;;;;;;;2.45;0.90;;;;;;;7.29;100.00;96574.09;10288677;28;20065;-47
2023/01/20 02:43:42;;;;;;;2.50;1.30;;;;;;;7.37;100.00;96561.16;10287594;28;20073;-50
2023/01/20 02:48:57;;;;;;;4.40;1.88;;;;;;;7.54;100.00;96523.16;10289273;28;20065;-48
2023/01/20 02:54:05;;;;;;;4.07;2.40;;;;;;;7.56;100.00;96493.03;10288813;28;20073;-47
2023/01/20 02:59:20;;;;;;;5.80;2.63;;;;;;;7.63;100.00;96489.50;10290172;28;20080;-48
2023/01/20 03:04:24;;;;;;;5.40;2.45;;;;;;;7.51;100.00;96494.81;10288345;28;20073;-48
2023/01/20 03:09:29;;;;;;;4.65;1.70;;;;;;;7.54;100.00;96491.34;10285770;28;20878;-47
2023/01/20 03:14:28;;;;;;;3.15;1.95;;;;;;;7.49;100.00;96486.22;10291315;28;20069;-48
2023/01/20 03:19:27;;;;;;;5.72;3.90;;;;;;;7.24;100.00;96489.00;10295973;28;20472;-48
2023/01/20 03:24:29;;;;;;;2.95;2.17;;;;;;;7.00;100.00;96517.53;10295780;28;20906;-49
2023/01/20 03:29:29;;;;;;;8.02;3.67;;;;;;;6.79;100.00;96466.97;10295803;28;20085;-48
2023/01/20 03:34:32;;;;;;;12.20;5.43;;;;;;;6.90;100.00;96487.53;10295514;28;20077;-46
2023/01/20 03:39:32;;;;;;;10.50;6.32;;;;;;;6.77;100.00;96495.34;10294960;28;20486;-49
2023/01/20 03:44:49;;;;;;;8.65;4.97;;;;;;;6.87;100.00;96500.47;10293833;28;20069;-47
2023/01/20 03:50:04;;;;;;;3.22;2.20;;;;;;;6.88;100.00;96504.72;10292892;28;20557;-48
2023/01/20 03:55:10;;;;;;;6.57;3.60;;;;;;;6.99;100.00;96500.38;10288099;28;20069;-47
2023/01/20 04:00:10;;;;;;;9.13;4.93;;;;;;;7.04;100.00;96475.38;10294898;28;20462;-49
2023/01/20 04:05:10;;;;;;;8.20;4.97;;;;;;;7.19;100.00;96472.69;10293743;28;20065;-49
2023/01/20 04:10:14;;;;;;;9.20;6.55;;;;;;;7.30;100.00;96495.81;10294602;28;20080;-47
2023/01/20 04:15:13;;;;;;;17.63;11.70;;;;;;;6.99;100.00;96418.69;10293740;28;20077;-49
2023/01/20 04:20:14;;;;;;;11.13;7.57;;;;;;;7.63;100.00;96474.03;10294586;28;20564;-49
2023/01/20 04:25:33;;;;;;;17.13;9.95;;;;;;;7.70;100.00;96461.06;10292144;28;20806;-47
2023/01/20 04:30:32;;;;;;;13.20;8.13;;;;;;;7.30;100.00;96413.25;10292353;28;20077;-50
2023/01/20 04:35:31;;;;;;;5.70;3.05;;;;;;;7.36;100.00;96418.34;10290997;28;20033;-50
2023/01/20 04:40:30;;;;;;;8.07;3.63;;;;;;;7.37;100.00;96399.41;10292529;28;20037;-48
2023/01/20 04:45:29;;;;;;;8.13;4.00;;;;;;;7.57;100.00;96403.53;10290909;28;20052;-48
2023/01/20 04:50:28;;;;;;;9.23;3.95;;;;;;;7.65;100.00;96402.56;10292502;28;20105;-48
2023/01/20 04:55:27;;;;;;;6.45;3.08;;;;;;;7.52;100.00;96401.03;10290808;28;20046;-50
2023/01/20 05:00:26;;;;;;;31.63;15.60;;;;;;;7.18;100.00;96388.41;10291726;28;20057;-47
2023/01/20 05:05:25;;;;;;;12.38;8.00;;;;;;;7.19;100.00;96392.72;10292116;28;20084;-49
2023/01/20 05:10:24;;;;;;;6.38;2.63;;;;;;;7.36;100.00;96377.06;10273955;28;20038;-49
2023/01/20 05:15:23;;;;;;;10.18;6.05;;;;;;;7.25;100.00;96359.09;10292433;28;20044;-47
2023/01/20 05:20:22;;;;;;;11.40;6.43;;;;;;;7.14;100.00;96340.28;10291741;28;20648;-48
2023/01/20 05:25:21;;;;;;;10.52;6.43;;;;;;;7.21;100.00;96341.94;10322593;28;20489;-48
2023/01/20 05:30:20;;;;;;;18.08;10.45;;;;;;;7.14;100.00;96332.56;10291158;28;20053;-49
2023/01/20 05:35:18;;;;;;;;;;;;;;;7.25;100.00;96325.56;10316574;28;20736;-49
2023/01/20 05:40:17;;;;;;;10.23;6.50;;;;;;;7.27;100.00;96333.28;10214016;28;20447;-49
2023/01/20 05:45:16;;;;;;;16.40;10.05;;;;;;;7.43;100.00;96334.03;10285425;28;20232;-50
2023/01/20 05:50:15;;;;;;;12.07;6.90;;;;;;;7.64;100.00;96358.72;10289811;28;20041;-49
2023/01/20 05:55:14;;;;;;;18.25;10.73;;;;;;;7.71;100.00;96346.56;10268455;28;20081;-49
2023/01/20 06:00:13;;;;;;;;;;;;;;;8.01;100.00;96394.41;10284520;28;20566;-50
2023/01/20 06:05:12;;;;;;;10.32;5.90;;;;;;;8.02;100.00;96419.38;10291146;28;20376;-50
2023/01/20 06:10:11;;;;;;;9.80;4.80;;;;;;;8.14;100.00;96410.63;10290915;28;20026;-50
2023/01/20 06:15:10;;;;;;;8.15;3.45;;;;;;;8.28;100.00;96408.69;10290380;28;20049;-49
2023/01/20 06:20:10;;;;;;;9.88;3.47;;;;;;;8.48;100.00;96426.50;10289888;28;20117;-47
2023/01/20 06:25:09;;;;;;;7.30;3.10;;;;;;;8.67;100.00;96435.72;10327136;28;20073;-48
2023/01/20 06:30:08;;;;;;;;;;;;;;;8.79;100.00;96434.69;10288950;28;20078;-47
2023/01/20 06:35:08;;;;;;;4.43;2.20;;;;;;;8.91;100.00;96444.00;10286213;28;19952;-47
2023/01/20 06:40:07;;;;;;;5.50;2.40;;;;;;;8.99;100.00;96438.69;10283505;28;20575;-49
2023/01/20 06:45:07;;;;;;;11.70;7.22;;;;;;;9.03;100.00;96417.06;10282701;28;20109;-48
2023/01/20 06:50:06;;;;;;;8.02;2.65;;;;;;;9.01;100.00;96411.06;10294165;28;20097;-47
2023/01/20 06:55:06;;;;;;;4.15;2.25;;;;;;;9.20;100.00;96416.78;10309395;28;20057;-47
2023/01/20 07:00:05;;;;;;;8.13;3.85;;;;;;;9.30;100.00;96428.69;10303049;28;20112;-48
2023/01/20 07:05:06;;;;;;;10.18;3.60;;;;;;;9.37;100.00;96437.22;10299818;28;20582;-48
2023/01/20 07:10:06;;;;;;;8.70;3.72;;;;;;;9.42;100.00;96471.66;10296068;28;20089;-50
2023/01/20 07:15:05;;;;;;;;;;;;;;;9.27;100.00;96478.75;10320623;28;20069;-47
2023/01/20 07:20:04;;;;;;;5.97;3.15;;;;;;;8.84;100.00;96432.03;10295524;28;19952;-47
2023/01/20 07:25:03;;;;;;;8.57;5.13;;;;;;;9.15;100.00;96484.16;10291652;28;20168;-49
2023/01/20 07:30:02;;;;;;;;;;;;;;;9.21;100.00;96485.75;10295670;28;20517;-50
2023/01/20 07:35:01;;;;;;;12.43;7.80;;;;;;;9.27;100.00;96498.63;10293889;28;20376;-47
2023/01/20 07:40:00;;;;;;;9.18;4.43;;;;;;;9.24;100.00;96478.81;10303697;28;20030;-47
2023/01/20 07:44:59;;;;;;;9.13;4.43;;;;;;;9.30;100.00;96467.53;10294373;28;20840;-47
2023/01/20 07:49:58;;;;;;;13.85;6.78;;;;;;;9.17;100.00;96469.44;10293599;28;20590;-49
2023/01/20 07:54:57;;;;;;;13.85;8.23;;;;;;;9.22;100.00;96465.03;10294293;28;20466;-48
2023/01/20 07:59:56;;;;;;;11.70;6.65;;;;;;;9.21;100.00;96470.25;10313280;28;20124;-48
2023/01/20 08:04:55;;;;;;;6.00;3.55;;;;;;;9.03;99.67;96476.59;10297407;28;20037;-48
2023/01/20 08:09:54;;;;;;;4.82;2.63;;;;;;;9.00;99.30;96487.00;10314833;28;20133;-47
2023/01/20 08:14:53;;;;;;;4.10;2.20;;;;;;;8.86;97.15;96459.59;10298704;28;20469;-51
2023/01/20 08:19:52;;;;;;;4.90;2.80;;;;;;;8.87;97.28;96439.72;10314888;28;20586;-49
2023/01/20 08:24:50;;;;;;;13.90;8.27;;;;;;;9.02;97.52;96442.09;10300496;28;20516;-49
2023/01/20 08:29:52;;;;;;;7.65;4.43;;;;;;;8.98;96.85;96447.34;10313083;28;20838;-48
2023/01/20 08:34:51;;;;;;;11.57;5.22;;;;;;;8.83;95.86;96407.03;10300698;28;20489;-49
2023/01/20 08:39:50;;;;;;;14.00;8.15;;;;;;;9.11;95.92;96454.00;10306597;28;20519;-48
2023/01/20 08:44:52;;;;;;;7.28;3.38;;;;;;;9.18;95.59;96463.38;10291053;28;20044;-47
2023/01/20 08:49:52;;;;;;;6.68;3.90;;;;;;;9.14;95.30;96439.31;10287489;28;20512;-48
2023/01/20 08:54:52;;;;;;;2.03;1.40;;;;;;;9.28;95.15;96417.53;10291241;28;20070;-47
2023/01/20 08:59:52;;;;;;;3.53;1.48;;;;;;;9.24;94.18;96379.63;10314678;28;20077;-49
2023/01/20 09:04:51;;;;;;;7.68;3.58;;;;;;;9.39;96.00;96350.03;10291137;28;20065;-48
2023/01/20 09:09:50;;;;;;;9.60;6.40;;;;;;;9.42;95.30;96316.31;10311408;28;20080;-47
2023/01/20 09:14:49;;;;;;;13.07;8.40;;;;;;;9.42;96.77;96348.25;10289261;28;20038;-48
2023/01/20 09:19:48;;;;;;;14.25;9.70;;;;;;;9.55;94.99;96334.16;10313150;28;20516;-47
2023/01/20 09:24:47;;;;;;;17.90;12.98;;;;;;;9.43;94.18;96333.56;10274015;28;20513;-47
2023/01/20 09:29:46;;;;;;;23.60;12.48;;;;;;;9.25;91.42;96278.63;10277394;28;20072;-47
2023/01/20 09:34:44;;;;;;;26.90;18.83;;;;;;;9.37;92.11;96303.44;10272021;28;20044;-48
2023/01/20 09:45:26;;;;;;;8.73;6.38;;;;;;;9.88;96.10;96287.72;10285417;28;20066;-47
2023/01/20 09:56:23;;;;;;;12.20;9.15;;;;;;;10.41;95.85;96254.53;10283571;28;20053;-48
2023/01/20 10:01:46;;;;;;;14.82;9.60;;;;;;;10.70;93.79;96249.50;10287936;28;20485;-50
2023/01/20 10:06:49;;;;;;;15.55;11.10;;;;;;;10.78;92.61;96232.00;10300334;28;20536;-48
2023/01/20 10:11:53;;;;;;;21.00;15.32;;;;;;;10.84;90.82;96229.22;10311067;28;20054;-48
2023/01/20 10:17:11;;;;;;;21.77;14.90;;;;;;;10.67;86.93;96218.44;10285176;28;20108;-48
2023/01/20 10:22:10;;;;;;;25.55;17.60;;;;;;;10.36;82.60;96212.31;10284667;28;20200;-47
2023/01/20 10:27:09;;;;;;;29.23;16.95;;;;;;;10.06;81.52;96187.13;10278455;28;20041;-50
2023/01/20 10:32:31;;;;;;;7.65;5.03;;;;;;;10.20;84.54;96172.09;10281447;28;20050;-48
2023/01/20 10:37:30;;;;;;;20.88;14.30;;;;;;;10.50;84.74;96154.91;10277890;28;20125;-45
2023/01/20 10:42:29;;;;;;;23.23;13.70;;;;;;;10.70;88.84;96110.25;10283827;28;20136;-48
2023/01/20 10:48:00;;;;;;;13.70;8.57;;;;;;;11.42;86.73;96147.13;10284474;28;20117;-49
2023/01/20 10:53:18;;;;;;;6.30;3.90;;;;;;;11.74;84.08;96173.88;10280564;28;20061;-49
2023/01/20 10:58:23;;;;;;;4.80;3.53;;;;;;;11.74;82.08;96155.69;10285319;28;20060;-49
2023/01/20 11:03:22;;;;;;;7.97;5.07;;;;;;;11.58;84.33;96089.53;10285231;28;20070;-46
2023/01/20 11:08:26;;;;;;;14.38;9.85;;;;;;;11.81;82.04;96136.41;10285233;28;20054;-49
2023/01/20 11:13:25;;;;;;;9.15;5.57;;;;;;;11.87;80.69;96136.19;10279251;28;20065;-46
2023/01/20 11:18:27;;;;;;;11.10;7.50;;;;;;;12.14;82.81;96118.00;10285206;28;20072;-49
2023/01/20 11:23:51;;;;;;;26.83;15.93;;;;;;;12.38;79.04;96146.72;10275247;28;20121;-46
2023/01/20 11:28:52;;;;;;;17.58;11.73;;;;;;;12.61;74.57;96151.16;10277012;28;20142;-46
2023/01/20 11:34:00;;;;;;;23.52;14.65;;;;;;;12.83;72.50;96148.63;10278730;28;20117;-48
2023/01/20 11:38:59;;;;;;;15.77;8.52;;;;;;;12.94;67.75;96136.06;10283066;28;20149;-47
2023/01/20 11:43:59;;;;;;;;;;;;;;;13.13;68.84;96126.66;10288022;28;20153;-46
2023/01/20 11:49:21;;;;;;;8.27;4.45;;;;;;;13.19;68.80;96132.56;10291647;28;19952;-47
2023/01/20 11:54:26;;;;;;;8.38;4.80;;;;;;;13.31;66.14;96145.13;10291684;28;20080;-48
2023/01/20 11:59:30;;;;;;;53.95;35.03;;;;;;;13.33;65.14;96140.72;10292681;28;20069;-47
2023/01/20 12:04:51;;;;;;;37.65;23.13;;;;;;;13.44;66.52;96143.75;10287526;28;20566;-49
2023/01/20 12:09:54;;;;;;;9.35;5.35;;;;;;;13.44;62.79;96120.28;10298478;28;20458;-50
2023/01/20 12:15:04;;;;;;;7.53;4.55;;;;;;;13.41;62.68;96138.66;10291375;28;20126;-49
2023/01/20 12:20:23;;;;;;;5.65;4.05;;;;;;;13.48;63.81;96147.09;10291878;28;20065;-49
2023/01/20 12:25:55;;;;;;;11.05;8.60;;;;;;;13.51;61.67;96140.00;10289342;28;20076;-47
2023/01/20 12:31:02;;;;;;;10.45;6.50;;;;;;;13.41;63.10;96149.09;10291573;28;20084;-49
2023/01/20 12:36:07;;;;;;;5.90;3.33;;;;;;;13.45;62.35;96145.47;10283008;28;20141;-47
2023/01/20 12:41:23;;;;;;;2.85;1.77;;;;;;;13.27;61.58;96146.16;10283266;28;20564;-46
2023/01/20 12:46:40;;;;;;;4.50;2.58;;;;;;;13.20;61.22;96142.09;10284118;28;20068;-48
2023/01/20 12:52:03;;;;;;;3.65;1.67;;;;;;;13.09;63.61;96150.28;10281395;28;20484;-49
2023/01/20 12:57:28;;;;;;;3.60;2.90;;;;;;;13.03;62.22;96168.75;10266438;28;20169;-51
2023/01/20 13:03:08;;;;;;;8.50;6.80;;;;;;;12.76;60.63;96220.03;10274962;28;20120;-47
2023/01/20 13:08:16;;;;;;;7.35;1.70;;;;;;;11.41;59.37;96264.91;10279378;28;20141;-48
2023/01/20 13:13:58;;;;;;;7.80;4.13;;;;;;;10.53;67.54;96270.69;10289773;28;20223;-49
2023/01/20 13:19:12;;;;;;;12.75;7.28;;;;;;;9.65;74.63;96308.94;10292568;28;20080;-48
2023/01/20 13:24:19;;;;;;;7.70;4.47;;;;;;;9.26;77.86;96342.47;10287386;28;20080;-50
2023/01/20 13:29:36;;;;;;;6.55;4.20;;;;;;;9.05;79.40;96351.47;10298716;28;20137;-48
2023/01/20 13:34:38;;;;;;;38.42;25.45;;;;;;;8.60;79.36;96386.69;10287948;28;20528;-48
2023/01/20 13:39:48;;;;;;;27.15;19.35;;;;;;;8.25;81.20;96385.50;10291807;28;20084;-49
2023/01/20 13:45:10;;;;;;;13.73;7.90;;;;;;;7.95;78.16;96377.25;10289663;28;20512;-49
2023/01/20 13:50:27;;;;;;;18.15;11.95;;;;;;;7.13;79.95;96281.84;10288345;28;20104;-50
2023/01/20 13:55:47;;;;;;;17.38;11.50;;;;;;;7.77;80.52;96400.72;10281486;28;20064;-48
2023/01/20 14:00:50;;;;;;;;;;;;;;;7.69;79.73;96410.31;10292835;28;20083;-49
2023/01/20 14:05:54;;;;;;;36.22;24.10;;;;;;;7.61;80.61;96403.47;10285985;28;20317;-48
2023/01/20 14:11:24;;;;;;;24.90;16.77;;;;;;;7.29;81.62;96405.50;10286840;28;20822;-49
2023/01/20 14:16:28;;;;;;;22.53;16.00;;;;;;;7.24;82.55;96401.28;10287329;28;20072;-50
2023/01/20 14:21:39;;;;;;;20.10;14.07;;;;;;;7.36;84.10;96402.03;10294166;28;20379;-50
2023/01/20 14:26:38;;;;;;;5.78;3.83;;;;;;;7.28;84.05;96393.50;10286104;28;20449;-45
2023/01/20 14:31:41;;;;;;;13.63;10.30;;;;;;;7.39;84.16;96401.97;10281206;28;20155;-48
2023/01/20 14:36:40;;;;;;;11.38;6.85;;;;;;;7.17;83.26;96357.47;10285222;28;20121;-47
2023/01/20 14:41:49;;;;;;;95.32;58.58;;;;;;;7.56;82.57;96423.31;10278491;28;20029;-49
2023/01/20 14:46:51;;;;;;;45.13;26.48;;;;;;;7.60;84.09;96422.44;10286562;28;20070;-48
2023/01/20 14:51:50;;;;;;;33.38;18.95;;;;;;;7.66;83.97;96445.63;10282375;28;20117;-49
2023/01/20 14:56:49;;;;;;;18.27;10.63;;;;;;;7.19;83.09;96413.38;10293392;28;20133;-48
2023/01/20 15:01:53;;;;;;;24.33;16.08;;;;;;;7.53;82.52;96461.25;10274878;28;20153;-47
2023/01/20 15:06:56;;;;;;;10.98;7.30;;;;;;;7.68;83.08;96473.97;10280851;28;20124;-50
2023/01/20 15:12:52;;;;;;;7.82;6.20;;;;;;;7.53;79.61;96471.56;10287972;28;20105;-49
2023/01/20 15:18:10;;;;;;;6.95;4.55;;;;;;;7.45;77.22;96469.91;10203723;28;20164;-48
2023/01/20 15:23:19;;;;;;;8.90;6.68;;;;;;;7.40;77.93;96486.28;10274172;28;20140;-47
2023/01/20 15:28:23;;;;;;;;;;;;;;;7.32;76.70;96496.66;10293766;28;20131;-48
2023/01/20 15:33:24;;;;;;;4.53;2.78;;;;;;;6.97;75.46;96499.53;10281397;28;20005;-48
2023/01/20 15:38:27;;;;;;;3.95;2.90;;;;;;;6.68;74.83;96477.38;10292764;28;20052;-49
2023/01/20 15:43:26;;;;;;;2.10;1.90;;;;;;;6.51;73.26;96468.88;10289762;28;20524;-48
2023/01/20 15:48:25;;;;;;;3.95;2.58;;;;;;;6.59;73.82;96527.25;10291780;28;20496;-48
2023/01/20 15:53:24;;;;;;;3.47;2.38;;;;;;;6.64;73.91;96545.25;10295486;28;20064;-48
2023/01/20 15:58:26;;;;;;;18.02;8.95;;;;;;;5.89;72.79;96470.88;10289352;28;20048;-49
2023/01/20 16:03:26;;;;;;;25.20;15.45;;;;;;;6.52;72.99;96587.41;10306606;28;20061;-50
2023/01/20 16:08:35;;;;;;;20.30;12.60;;;;;;;6.52;72.61;96597.72;10291313;28;20485;-48
2023/01/20 16:13:34;;;;;;;11.00;7.20;;;;;;;6.50;72.93;96614.06;10317050;28;20057;-48
2023/01/20 16:18:33;;;;;;;14.90;8.85;;;;;;;6.38;72.18;96633.84;10303626;28;20084;-47
2023/01/20 16:23:32;;;;;;;23.15;12.20;;;;;;;6.37;71.76;96637.28;10330798;28;20479;-50
2023/01/20 16:28:31;;;;;;;;;;;;;;;6.50;71.11;96650.13;10306067;28;20098;-47
2023/01/20 16:33:30;;;;;;;18.40;11.18;;;;;;;6.61;71.86;96666.44;10304754;28;19959;-48
2023/01/20 16:38:29;;;;;;;59.25;30.30;;;;;;;6.50;70.58;96650.13;10295962;28;20053;-48
2023/01/20 16:43:28;;;;;;;98.20;44.17;;;;;;;6.39;70.17;96612.34;10287104;28;20404;-49
2023/01/20 16:48:27;;;;;;;;;;;;;;;6.79;70.01;96679.25;10292921;28;20084;-49
2023/01/20 16:53:25;;;;;;;18.55;12.00;;;;;;;6.76;69.00;96688.72;10278823;28;19956;-48
2023/01/20 16:58:24;;;;;;;11.25;8.23;;;;;;;6.69;69.12;96662.09;10291876;28;20088;-48
2023/01/20 17:03:26;;;;;;;10.52;6.57;;;;;;;6.85;67.50;96683.53;10274750;28;20532;-49
2023/01/20 17:08:25;;;;;;;34.65;18.83;;;;;;;6.86;66.73;96695.56;10288311;28;20831;-49
2023/01/20 17:13:24;;;;;;;35.28;20.17;;;;;;;6.77;66.74;96711.94;10285905;28;20061;-48
2023/01/20 17:18:23;;;;;;;54.95;28.33;;;;;;;6.64;64.78;96709.38;10277491;28;20038;-49
2023/01/20 17:23:22;;;;;;;102.97;50.30;;;;;;;6.32;66.90;96654.47;10294735;28;20153;-49
2023/01/20 17:28:21;;;;;;;37.78;20.38;;;;;;;6.51;66.29;96711.13;10328532;28;20077;-48
2023/01/20 17:33:21;;;;;;;54.88;30.70;;;;;;;6.48;66.31;96732.59;10323747;28;20037;-48
2023/01/20 17:38:21;;;;;;;30.63;18.58;;;;;;;6.36;67.72;96733.47;10317336;28;20076;-49
2023/01/20 17:43:20;;;;;;;25.95;15.18;;;;;;;6.29;66.64;96734.34;10301372;28;20245;-49
2023/01/20 17:48:20;;;;;;;8.23;5.35;;;;;;;6.31;67.82;96753.25;10330597;28;20160;-49
2023/01/20 17:53:19;;;;;;;8.07;4.68;;;;;;;6.23;67.58;96746.34;10327382;28;20140;-47
2023/01/20 17:58:18;;;;;;;7.13;4.50;;;;;;;5.83;66.74;96697.44;10330185;28;20179;-50
2023/01/20 18:03:17;;;;;;;5.90;3.45;;;;;;;5.88;66.94;96711.16;10312085;28;20061;-47
2023/01/20 18:08:16;;;;;;;5.13;3.45;;;;;;;6.11;66.59;96778.97;10287820;28;20124;-48
2023/01/20 18:13:15;;;;;;;20.95;10.65;;;;;;;6.12;67.87;96790.16;10310653;28;20120;-47
2023/01/20 18:18:14;;;;;;;35.22;22.08;;;;;;;5.95;67.20;96793.56;10291473;28;20076;-47
2023/01/20 18:23:12;;;;;;;32.40;18.58;;;;;;;5.83;66.80;96800.41;10312242;28;20120;-47
2023/01/20 18:28:11;;;;;;;25.92;13.95;;;;;;;5.92;67.55;96805.56;10326735;28;20049;-49
2023/01/20 18:33:10;;;;;;;26.08;15.55;;;;;;;5.96;67.82;96799.59;10318987;28;20148;-49
2023/01/20 18:38:09;;;;;;;66.25;31.27;;;;;;;5.60;68.62;96782.31;10327532;28;20029;-48
2023/01/20 18:43:08;;;;;;;86.95;40.42;;;;;;;5.52;68.42;96790.03;10327623;28;20113;-47
2023/01/20 18:48:08;;;;;;;;;;;;;;;5.73;69.30;96818.41;10305102;28;20061;-49
2023/01/20 18:53:07;;;;;;;14.23;7.63;;;;;;;5.53;68.57;96822.59;10318704;28;19952;-49
2023/01/20 18:58:07;;;;;;;103.13;49.90;;;;;;;5.58;68.66;96836.38;10336414;28;20040;-47
2023/01/20 19:03:06;;;;;;;68.10;32.20;;;;;;;5.01;68.36;96746.09;10332920;28;20744;-47
2023/01/20 19:08:05;;;;;;;66.65;31.83;;;;;;;5.32;68.78;96828.53;10338036;28;20073;-48
2023/01/20 19:13:04;;;;;;;22.27;12.70;;;;;;;5.55;69.15;96851.78;10330681;28;20147;-48
2023/01/20 19:18:03;;;;;;;215.98;89.50;;;;;;;5.27;69.51;96877.38;10299284;28;20065;-48
2023/01/20 19:23:02;;;;;;;72.80;37.30;;;;;;;5.39;70.47;96886.03;10309705;28;20085;-47
2023/01/20 19:28:04;;;;;;;46.88;28.80;;;;;;;5.29;69.73;96879.97;10314674;28;20543;-47
2023/01/20 19:33:03;;;;;;;47.40;28.52;;;;;;;5.38;69.87;96894.59;10272735;28;20106;-49
2023/01/20 19:38:02;;;;;;;52.28;32.97;;;;;;;5.15;69.71;96854.16;10303200;28;20100;-49
2023/01/20 19:43:01;;;;;;;24.25;16.70;;;;;;;5.35;70.04;96921.16;10293222;28;20052;-47
2023/01/20 19:48:00;;;;;;;14.68;8.43;;;;;;;5.09;70.32;96921.84;10294067;28;20084;-49
2023/01/20 19:52:59;;;;;;;21.08;13.68;;;;;;;5.19;71.01;96924.50;10292833;28;20391;-47
2023/01/20 19:57:58;;;;;;;22.33;15.05;;;;;;;5.32;71.34;96939.13;10292056;28;20036;-48
2023/01/20 20:02:57;;;;;;;84.07;51.65;;;;;;;5.15;72.52;96946.75;10290996;28;20036;-47
2023/01/20 20:07:58;;;;;;;111.63;66.57;;;;;;;5.04;73.27;96972.41;10293003;28;20040;-48
2023/01/20 20:12:57;;;;;;;38.97;24.50;;;;;;;5.08;73.98;96976.69;10287569;28;20058;-48
2023/01/20 20:17:55;;;;;;;29.65;21.95;;;;;;;5.02;74.25;96974.09;10288858;28;20029;-48
2023/01/20 20:22:54;;;;;;;25.23;16.83;;;;;;;4.99;74.70;96981.75;10287781;28;20793;-48
2023/01/20 20:27:55;;;;;;;40.88;26.77;;;;;;;4.90;74.38;96985.09;10292469;28;20073;-49
2023/01/20 20:32:54;;;;;;;31.30;18.88;;;;;;;4.76;75.09;96978.09;10291358;28;20053;-49
2023/01/20 20:37:53;;;;;;;39.10;27.17;;;;;;;4.62;75.62;96962.53;10292639;28;20116;-47
2023/01/20 20:42:52;;;;;;;27.80;18.73;;;;;;;4.75;75.44;96968.66;10290426;28;20029;-48
2023/01/20 20:47:51;;;;;;;42.92;28.45;;;;;;;4.55;75.08;96951.38;10292235;28;20113;-47
2023/01/20 20:52:50;;;;;;;20.08;12.48;;;;;;;2.99;75.64;96738.38;10282162;28;20172;-49
2023/01/20 20:57:49;;;;;;;;;;;;;;;4.74;74.73;96990.09;10291916;28;20053;-47
2023/01/20 21:02:48;;;;;;;22.42;13.60;;;;;;;4.82;74.88;96994.44;10291619;28;20368;-47
2023/01/20 21:07:47;;;;;;;48.13;28.38;;;;;;;4.65;75.80;96989.16;10290554;28;20058;-48
2023/01/20 21:12:46;;;;;;;34.42;23.48;;;;;;;4.58;75.94;96997.63;10290915;28;20026;-47
2023/01/20 21:17:45;;;;;;;28.95;17.40;;;;;;;4.42;76.19;97009.44;10289836;28;20465;-48
2023/01/20 21:22:44;;;;;;;20.60;13.45;;;;;;;4.21;76.56;97010.06;10290462;28;20405;-49
2023/01/20 21:27:43;;;;;;;21.92;15.02;;;;;;;4.19;77.16;97024.59;10289663;28;20065;-48
2023/01/20 21:32:42;;;;;;;23.80;14.35;;;;;;;4.18;77.33;97045.97;10288726;28;20026;-49
2023/01/20 21:37:42;;;;;;;62.63;35.00;;;;;;;4.12;77.41;97047.59;10287526;28;20564;-48
2023/01/20 21:42:41;;;;;;;66.88;35.88;;;;;;;3.97;78.04;97048.28;10289858;28;20081;-48
2023/01/20 21:47:40;;;;;;;52.30;30.63;;;;;;;3.63;79.34;97022.13;10284207;28;20112;-48
2023/01/20 21:52:42;;;;;;;104.30;58.55;;;;;;;3.56;80.09;97062.22;10285654;28;20037;-48
2023/01/20 21:57:42;;;;;;;49.17;31.33;;;;;;;3.56;80.36;97064.78;10290399;28;20073;-47
2023/01/20 22:02:43;;;;;;;53.00;33.42;;;;;;;3.62;79.64;97072.59;10289402;28;20068;-48
2023/01/20 22:07:42;;;;;;;40.28;22.60;;;;;;;3.64;79.66;97067.50;10289418;28;20069;-48
2023/01/20 22:12:41;;;;;;;42.90;25.20;;;;;;;3.63;79.92;97058.03;10289014;28;20532;-48
2023/01/20 22:17:40;;;;;;;36.80;22.25;;;;;;;3.60;79.78;97069.13;10282513;28;20118;-47
2023/01/20 22:22:39;;;;;;;36.25;21.50;;;;;;;3.54;80.41;97065.59;10282766;28;20074;-52
2023/01/20 22:27:38;;;;;;;35.03;21.90;;;;;;;3.52;80.08;97062.16;10288002;28;20022;-47
2023/01/20 22:32:37;;;;;;;50.50;29.40;;;;;;;3.36;80.93;97058.50;10288554;28;20405;-48
2023/01/20 22:37:36;;;;;;;50.03;33.15;;;;;;;3.16;82.22;97071.84;10288682;28;20125;-48
2023/01/20 22:42:35;;;;;;;54.65;32.78;;;;;;;3.23;81.90;97068.53;10288174;28;20036;-47
2023/01/20 22:47:34;;;;;;;64.63;39.00;;;;;;;3.17;81.47;97077.84;10288612;28;20109;-49
2023/01/20 22:52:32;;;;;;;58.25;36.67;;;;;;;2.97;82.43;97080.06;10287302;28;20123;-50
2023/01/20 22:57:31;;;;;;;103.40;57.15;;;;;;;2.98;82.55;97087.78;10288235;28;20061;-47
2023/01/20 23:02:30;;;;;;;70.20;40.10;;;;;;;2.90;82.01;97079.06;10285016;28;20109;-47
2023/01/20 23:07:29;;;;;;;37.83;23.42;;;;;;;2.67;83.39;97081.19;10286319;28;20095;-51
2023/01/20 23:12:28;;;;;;;34.50;20.88;;;;;;;2.70;82.77;97088.06;10286384;28;20110;-50
2023/01/20 23:17:29;;;;;;;28.75;19.25;;;;;;;2.61;82.74;97091.34;10285530;28;20037;-47
2023/01/20 23:22:28;;;;;;;25.17;16.65;;;;;;;2.51;82.96;97069.81;10284614;28;20145;-46
2023/01/20 23:27:27;;;;;;;;;;;;;;;2.58;82.60;97081.03;10283301;28;20122;-47
2023/01/20 23:32:26;;;;;;;29.50;19.27;;;;;;;2.58;82.67;97097.28;10290481;28;19936;-48
2023/01/20 23:37:25;;;;;;;49.53;31.52;;;;;;;2.54;83.33;97110.84;10291409;28;20029;-47